AEZ1426 LIRN-LIPK
Flight info
| Callsign | AEZ1426 |
|---|---|
| Flight time | 0h 50m |
| Altitude | 18000 |
| Route | ALAXI L995 PEMAR Z810 GOTMO/N0460F340 DCT ASDOR |
| Aircraft | E195/M-SDE3GILORVW/S |
Departure
| Time | 2026-05-06 21:38 |
|---|---|
| Airport | Naples International Airport (LIRN) |
Arrival
| Time | 2026-05-06 22:28 |
|---|---|
| Airport | Forlì-Luigi Ridolfi International Airport (LIPK) |
| Time | Latitude | Longitude | Altitude | Speed | Heading |
|---|---|---|---|---|---|
| 2026-05-06 21:09 | 40.87883 | 14.28285 | 291 ft | 0 kts | 187° |
| 2026-05-06 21:22 | 40.87893 | 14.28287 | 291 ft | 2 kts | 187° |
| 2026-05-06 21:22 | 40.87908 | 14.28289 | 290 ft | 2 kts | 187° |
| 2026-05-06 21:23 | 40.87923 | 14.28293 | 290 ft | 2 kts | 205° |
| 2026-05-06 21:23 | 40.87935 | 14.28304 | 290 ft | 2 kts | 227° |
| 2026-05-06 21:23 | 40.87943 | 14.28321 | 290 ft | 2 kts | 251° |
| 2026-05-06 21:23 | 40.87946 | 14.28340 | 290 ft | 1 kts | 273° |
| 2026-05-06 21:24 | 40.87945 | 14.28348 | 289 ft | 1 kts | 279° |
| 2026-05-06 21:24 | 40.87944 | 14.28351 | 289 ft | 0 kts | 277° |
| 2026-05-06 21:26 | 40.87944 | 14.28348 | 289 ft | 1 kts | 277° |
| 2026-05-06 21:27 | 40.87948 | 14.28318 | 290 ft | 6 kts | 277° |
| 2026-05-06 21:27 | 40.87954 | 14.28257 | 290 ft | 6 kts | 277° |
| 2026-05-06 21:27 | 40.87960 | 14.28197 | 291 ft | 6 kts | 277° |
| 2026-05-06 21:27 | 40.87974 | 14.28137 | 291 ft | 6 kts | 312° |
| 2026-05-06 21:28 | 40.88020 | 14.28138 | 291 ft | 8 kts | 46° |
| 2026-05-06 21:28 | 40.88055 | 14.28209 | 290 ft | 10 kts | 61° |
| 2026-05-06 21:28 | 40.88065 | 14.28314 | 288 ft | 13 kts | 98° |
| 2026-05-06 21:28 | 40.88052 | 14.28443 | 286 ft | 15 kts | 97° |
| 2026-05-06 21:29 | 40.88040 | 14.28565 | 285 ft | 8 kts | 97° |
| 2026-05-06 21:29 | 40.88063 | 14.28634 | 283 ft | 10 kts | 53° |
| 2026-05-06 21:29 | 40.88112 | 14.28719 | 281 ft | 13 kts | 53° |
| 2026-05-06 21:29 | 40.88175 | 14.28832 | 277 ft | 17 kts | 54° |
| 2026-05-06 21:30 | 40.88258 | 14.28969 | 274 ft | 20 kts | 54° |
| 2026-05-06 21:30 | 40.88347 | 14.29127 | 268 ft | 22 kts | 53° |
| 2026-05-06 21:30 | 40.88440 | 14.29289 | 263 ft | 23 kts | 53° |
| 2026-05-06 21:30 | 40.88518 | 14.29429 | 259 ft | 18 kts | 54° |
| 2026-05-06 21:31 | 40.88605 | 14.29585 | 254 ft | 22 kts | 53° |
| 2026-05-06 21:31 | 40.88698 | 14.29737 | 249 ft | 17 kts | 52° |
| 2026-05-06 21:31 | 40.88779 | 14.29877 | 245 ft | 21 kts | 53° |
| 2026-05-06 21:31 | 40.88874 | 14.30043 | 240 ft | 23 kts | 53° |
| 2026-05-06 21:32 | 40.88968 | 14.30205 | 236 ft | 17 kts | 52° |
| 2026-05-06 21:32 | 40.89046 | 14.30341 | 234 ft | 0 kts | 52° |
| 2026-05-06 21:32 | 40.89052 | 14.30351 | 234 ft | 2 kts | 52° |
| 2026-05-06 21:33 | 40.89065 | 14.30374 | 234 ft | 4 kts | 52° |
| 2026-05-06 21:33 | 40.89090 | 14.30415 | 233 ft | 6 kts | 49° |
| 2026-05-06 21:33 | 40.89122 | 14.30450 | 232 ft | 1 kts | 21° |
| 2026-05-06 21:33 | 40.89123 | 14.30451 | 232 ft | 0 kts | 21° |
| 2026-05-06 21:35 | 40.89134 | 14.30454 | 232 ft | 2 kts | 8° |
| 2026-05-06 21:35 | 40.89154 | 14.30453 | 232 ft | 3 kts | 353° |
| 2026-05-06 21:35 | 40.89180 | 14.30439 | 232 ft | 4 kts | 332° |
| 2026-05-06 21:36 | 40.89211 | 14.30415 | 232 ft | 4 kts | 328° |
| 2026-05-06 21:36 | 40.89225 | 14.30398 | 233 ft | 2 kts | 271° |
| 2026-05-06 21:36 | 40.89216 | 14.30374 | 233 ft | 2 kts | 236° |
| 2026-05-06 21:36 | 40.89214 | 14.30370 | 233 ft | 0 kts | 237° |
| 2026-05-06 21:37 | 40.89172 | 14.30282 | 234 ft | 41 kts | 239° |
| 2026-05-06 21:37 | 40.88887 | 14.29682 | 248 ft | 110 kts | 238° |
| 2026-05-06 21:37 | 40.88391 | 14.28619 | 298 ft | 160 kts | 237° |
| 2026-05-06 21:37 | 40.87775 | 14.27326 | 710 ft | 176 kts | 237° |
| 2026-05-06 21:38 | 40.86948 | 14.26041 | 1287 ft | 188 kts | 220° |
| 2026-05-06 21:38 | 40.85910 | 14.24941 | 1945 ft | 203 kts | 211° |
| 2026-05-06 21:38 | 40.84665 | 14.24371 | 3220 ft | 184 kts | 185° |
| 2026-05-06 21:38 | 40.83460 | 14.24546 | 4174 ft | 183 kts | 163° |
| 2026-05-06 21:39 | 40.82362 | 14.25396 | 4975 ft | 190 kts | 146° |
| 2026-05-06 21:39 | 40.81257 | 14.26417 | 5647 ft | 199 kts | 153° |
| 2026-05-06 21:39 | 40.80114 | 14.27312 | 5642 ft | 193 kts | 155° |
| 2026-05-06 21:39 | 40.78939 | 14.28100 | 5631 ft | 173 kts | 161° |
| 2026-05-06 21:40 | 40.77750 | 14.28705 | 6046 ft | 196 kts | 166° |
| 2026-05-06 21:40 | 40.76393 | 14.29202 | 6678 ft | 199 kts | 172° |
| 2026-05-06 21:40 | 40.75032 | 14.29536 | 7284 ft | 207 kts | 177° |
| 2026-05-06 21:40 | 40.73551 | 14.29722 | 7817 ft | 222 kts | 182° |
| 2026-05-06 21:41 | 40.71919 | 14.29744 | 8162 ft | 249 kts | 186° |
| 2026-05-06 21:41 | 40.70110 | 14.29580 | 8660 ft | 268 kts | 191° |
| 2026-05-06 21:41 | 40.68271 | 14.29237 | 9533 ft | 272 kts | 195° |
| 2026-05-06 21:41 | 40.66408 | 14.29160 | 10724 ft | 273 kts | 172° |
| 2026-05-06 21:42 | 40.64922 | 14.30014 | 12736 ft | 234 kts | 154° |
| 2026-05-06 21:42 | 40.63836 | 14.31392 | 14043 ft | 215 kts | 134° |
| 2026-05-06 21:42 | 40.63129 | 14.33170 | 14540 ft | 235 kts | 112° |
| 2026-05-06 21:42 | 40.62890 | 14.35397 | 14944 ft | 257 kts | 92° |
| 2026-05-06 21:43 | 40.63209 | 14.37756 | 15467 ft | 270 kts | 70° |
| 2026-05-06 21:43 | 40.64095 | 14.39975 | 16059 ft | 275 kts | 51° |
| 2026-05-06 21:43 | 40.65430 | 14.41737 | 16667 ft | 275 kts | 31° |
| 2026-05-06 21:43 | 40.67097 | 14.42906 | 17277 ft | 270 kts | 12° |
| 2026-05-06 21:44 | 40.68896 | 14.43352 | 17896 ft | 261 kts | 352° |
| 2026-05-06 21:44 | 40.70655 | 14.43059 | 18527 ft | 251 kts | 335° |
| 2026-05-06 21:44 | 40.72364 | 14.42568 | 19133 ft | 257 kts | 345° |
| 2026-05-06 21:44 | 40.74174 | 14.42244 | 19356 ft | 278 kts | 345° |
| 2026-05-06 21:45 | 40.76190 | 14.41845 | 19441 ft | 304 kts | 345° |
| 2026-05-06 21:45 | 40.78363 | 14.41397 | 19535 ft | 329 kts | 346° |
| 2026-05-06 21:45 | 40.80705 | 14.40906 | 19598 ft | 355 kts | 345° |
| 2026-05-06 21:45 | 40.83240 | 14.40371 | 19772 ft | 376 kts | 346° |
| 2026-05-06 21:46 | 40.85867 | 14.39815 | 20299 ft | 385 kts | 346° |
| 2026-05-06 21:46 | 40.88497 | 14.39256 | 21009 ft | 384 kts | 346° |
| 2026-05-06 21:46 | 40.91087 | 14.38550 | 21768 ft | 381 kts | 338° |
| 2026-05-06 21:46 | 40.93507 | 14.37237 | 22531 ft | 375 kts | 326° |
| 2026-05-06 21:47 | 40.95671 | 14.35350 | 23302 ft | 367 kts | 314° |
| 2026-05-06 21:47 | 40.97581 | 14.33178 | 24091 ft | 366 kts | 314° |
| 2026-05-06 21:47 | 40.99501 | 14.31012 | 24862 ft | 365 kts | 313° |
| 2026-05-06 21:47 | 41.01432 | 14.28845 | 25652 ft | 363 kts | 314° |
| 2026-05-06 21:48 | 41.03354 | 14.26694 | 26443 ft | 361 kts | 314° |
| 2026-05-06 21:48 | 41.05235 | 14.24589 | 27242 ft | 358 kts | 313° |
| 2026-05-06 21:48 | 41.07138 | 14.22456 | 28051 ft | 354 kts | 313° |
| 2026-05-06 21:48 | 41.08995 | 14.20374 | 28845 ft | 350 kts | 313° |
| 2026-05-06 21:49 | 41.10842 | 14.18303 | 29644 ft | 345 kts | 313° |
| 2026-05-06 21:49 | 41.12625 | 14.16301 | 30431 ft | 339 kts | 312° |
| 2026-05-06 21:49 | 41.14403 | 14.14304 | 31232 ft | 332 kts | 312° |
| 2026-05-06 21:49 | 41.16141 | 14.12349 | 32035 ft | 324 kts | 311° |
| 2026-05-06 21:50 | 41.17838 | 14.10442 | 32841 ft | 314 kts | 311° |
| 2026-05-06 21:50 | 41.19467 | 14.08608 | 33625 ft | 303 kts | 311° |
| 2026-05-06 21:50 | 41.21041 | 14.06830 | 34001 ft | 306 kts | 310° |
| 2026-05-06 21:50 | 41.22706 | 14.04947 | 34045 ft | 318 kts | 311° |
| 2026-05-06 21:51 | 41.24406 | 14.03026 | 34051 ft | 332 kts | 311° |
| 2026-05-06 21:51 | 41.26196 | 14.01005 | 34052 ft | 346 kts | 311° |
| 2026-05-06 21:51 | 41.28088 | 13.98867 | 34055 ft | 360 kts | 312° |
| 2026-05-06 21:51 | 41.29990 | 13.96626 | 34051 ft | 370 kts | 307° |
| 2026-05-06 21:52 | 41.31786 | 13.94107 | 34052 ft | 383 kts | 306° |
| 2026-05-06 21:52 | 41.33636 | 13.91496 | 34048 ft | 397 kts | 306° |
| 2026-05-06 21:52 | 41.35546 | 13.88800 | 34038 ft | 411 kts | 307° |
| 2026-05-06 21:52 | 41.37546 | 13.85975 | 34041 ft | 425 kts | 307° |
| 2026-05-06 21:53 | 41.39617 | 13.83049 | 34030 ft | 438 kts | 307° |
| 2026-05-06 21:53 | 41.41727 | 13.80065 | 34032 ft | 451 kts | 307° |
| 2026-05-06 21:53 | 41.43905 | 13.76980 | 34022 ft | 463 kts | 307° |
| 2026-05-06 21:53 | 41.46114 | 13.73849 | 34020 ft | 474 kts | 307° |
| 2026-05-06 21:54 | 41.50587 | 13.67502 | 34012 ft | 460 kts | 307° |
| 2026-05-06 21:54 | 41.54934 | 13.61312 | 34023 ft | 459 kts | 307° |
| 2026-05-06 21:55 | 41.59285 | 13.55107 | 34024 ft | 459 kts | 307° |
| 2026-05-06 21:55 | 41.63637 | 13.48887 | 34023 ft | 459 kts | 307° |
| 2026-05-06 21:56 | 41.68014 | 13.42619 | 34029 ft | 459 kts | 307° |
| 2026-05-06 21:56 | 41.70140 | 13.39572 | 34016 ft | 447 kts | 307° |
| 2026-05-06 21:56 | 41.72298 | 13.36467 | 34032 ft | 458 kts | 307° |
| 2026-05-06 21:57 | 41.76644 | 13.30210 | 34036 ft | 457 kts | 306° |
| 2026-05-06 21:57 | 41.80943 | 13.24002 | 34036 ft | 456 kts | 306° |
| 2026-05-06 21:58 | 41.85259 | 13.17747 | 34034 ft | 458 kts | 306° |
| 2026-05-06 21:58 | 41.89558 | 13.11499 | 34039 ft | 458 kts | 306° |
| 2026-05-06 21:59 | 41.93840 | 13.05272 | 34039 ft | 456 kts | 306° |
| 2026-05-06 21:59 | 41.98185 | 12.99002 | 34032 ft | 459 kts | 309° |
| 2026-05-06 22:00 | 42.03509 | 12.94029 | 34048 ft | 478 kts | 328° |
| 2026-05-06 22:00 | 42.09823 | 12.91128 | 34042 ft | 489 kts | 345° |
| 2026-05-06 22:01 | 42.16699 | 12.90867 | 34030 ft | 501 kts | 4° |
| 2026-05-06 22:01 | 42.23589 | 12.91662 | 34028 ft | 496 kts | 356° |
| 2026-05-06 22:02 | 42.30462 | 12.91641 | 34025 ft | 494 kts | 355° |
| 2026-05-06 22:02 | 42.37347 | 12.91569 | 34019 ft | 493 kts | 355° |
| 2026-05-06 22:03 | 42.44230 | 12.91493 | 34014 ft | 493 kts | 355° |
| 2026-05-06 22:03 | 42.51043 | 12.91419 | 34008 ft | 479 kts | 355° |
| 2026-05-06 22:04 | 42.57633 | 12.91345 | 34015 ft | 473 kts | 355° |
| 2026-05-06 22:04 | 42.64161 | 12.91274 | 33988 ft | 460 kts | 354° |
| 2026-05-06 22:05 | 42.67317 | 12.91241 | 33892 ft | 442 kts | 354° |
| 2026-05-06 22:05 | 42.70363 | 12.91207 | 33487 ft | 434 kts | 354° |
| 2026-05-06 22:05 | 42.73454 | 12.91165 | 32025 ft | 469 kts | 354° |
| 2026-05-06 22:05 | 42.76761 | 12.91130 | 31493 ft | 477 kts | 355° |
| 2026-05-06 22:06 | 42.80056 | 12.91095 | 30942 ft | 478 kts | 354° |
| 2026-05-06 22:06 | 42.83387 | 12.91059 | 30411 ft | 476 kts | 354° |
| 2026-05-06 22:06 | 42.86692 | 12.91022 | 29892 ft | 471 kts | 354° |
| 2026-05-06 22:06 | 42.89979 | 12.90986 | 29444 ft | 465 kts | 354° |
| 2026-05-06 22:07 | 42.93188 | 12.90949 | 28934 ft | 462 kts | 354° |
| 2026-05-06 22:07 | 42.96392 | 12.90913 | 28424 ft | 457 kts | 355° |
| 2026-05-06 22:07 | 42.99520 | 12.90878 | 27930 ft | 454 kts | 355° |
| 2026-05-06 22:07 | 43.02658 | 12.90843 | 27424 ft | 450 kts | 355° |
| 2026-05-06 22:08 | 43.05776 | 12.90811 | 27353 ft | 443 kts | 355° |
| 2026-05-06 22:08 | 43.08859 | 12.90781 | 27408 ft | 445 kts | 355° |
| 2026-05-06 22:08 | 43.11965 | 12.90747 | 27454 ft | 449 kts | 355° |
| 2026-05-06 22:08 | 43.15089 | 12.90713 | 27492 ft | 450 kts | 355° |
| 2026-05-06 22:09 | 43.18230 | 12.90678 | 27538 ft | 450 kts | 355° |
| 2026-05-06 22:09 | 43.21330 | 12.90644 | 27548 ft | 441 kts | 355° |
| 2026-05-06 22:09 | 43.24414 | 12.90612 | 27096 ft | 453 kts | 355° |
| 2026-05-06 22:09 | 43.27607 | 12.90574 | 26291 ft | 453 kts | 356° |
| 2026-05-06 22:10 | 43.30689 | 12.90288 | 25132 ft | 450 kts | 343° |
| 2026-05-06 22:10 | 43.33535 | 12.88662 | 23729 ft | 445 kts | 322° |
| 2026-05-06 22:10 | 43.35717 | 12.85800 | 22401 ft | 437 kts | 300° |
| 2026-05-06 22:10 | 43.37164 | 12.82204 | 21820 ft | 417 kts | 294° |
| 2026-05-06 22:11 | 43.38480 | 12.78760 | 21373 ft | 401 kts | 294° |
| 2026-05-06 22:11 | 43.39814 | 12.75511 | 20977 ft | 390 kts | 302° |
| 2026-05-06 22:11 | 43.41680 | 12.72887 | 20600 ft | 383 kts | 317° |
| 2026-05-06 22:11 | 43.43820 | 12.70692 | 20180 ft | 382 kts | 321° |
| 2026-05-06 22:12 | 43.46037 | 12.68638 | 19753 ft | 383 kts | 323° |
| 2026-05-06 22:12 | 43.48258 | 12.66653 | 19331 ft | 383 kts | 323° |
| 2026-05-06 22:12 | 43.50494 | 12.64678 | 18896 ft | 383 kts | 323° |
| 2026-05-06 22:12 | 43.52727 | 12.62713 | 18475 ft | 380 kts | 323° |
| 2026-05-06 22:13 | 43.54949 | 12.60759 | 18062 ft | 377 kts | 323° |
| 2026-05-06 22:13 | 43.57174 | 12.58801 | 17638 ft | 375 kts | 323° |
| 2026-05-06 22:13 | 43.59334 | 12.56900 | 17232 ft | 372 kts | 323° |
| 2026-05-06 22:13 | 43.61503 | 12.54988 | 16815 ft | 370 kts | 324° |
| 2026-05-06 22:14 | 43.63663 | 12.53084 | 16407 ft | 368 kts | 324° |
| 2026-05-06 22:14 | 43.65834 | 12.51168 | 15989 ft | 366 kts | 324° |
| 2026-05-06 22:14 | 43.67938 | 12.49309 | 15594 ft | 363 kts | 324° |
| 2026-05-06 22:14 | 43.70072 | 12.47422 | 15182 ft | 359 kts | 324° |
| 2026-05-06 22:15 | 43.72157 | 12.45577 | 14788 ft | 355 kts | 324° |
| 2026-05-06 22:15 | 43.74239 | 12.43733 | 14395 ft | 353 kts | 324° |
| 2026-05-06 22:15 | 43.76279 | 12.41925 | 14003 ft | 349 kts | 324° |
| 2026-05-06 22:15 | 43.78304 | 12.40085 | 13615 ft | 345 kts | 319° |
| 2026-05-06 22:16 | 43.80050 | 12.37880 | 13280 ft | 341 kts | 313° |
| 2026-05-06 22:16 | 43.81755 | 12.35613 | 12896 ft | 338 kts | 313° |
| 2026-05-06 22:16 | 43.83411 | 12.33410 | 12527 ft | 327 kts | 312° |
| 2026-05-06 22:16 | 43.85032 | 12.31250 | 12167 ft | 317 kts | 312° |
| 2026-05-06 22:17 | 43.86581 | 12.29184 | 11823 ft | 308 kts | 312° |
| 2026-05-06 22:17 | 43.88105 | 12.27149 | 11485 ft | 299 kts | 312° |
| 2026-05-06 22:17 | 43.89587 | 12.25169 | 11164 ft | 291 kts | 312° |
| 2026-05-06 22:17 | 43.91027 | 12.23244 | 10845 ft | 284 kts | 312° |
| 2026-05-06 22:18 | 43.92442 | 12.21351 | 10526 ft | 278 kts | 312° |
| 2026-05-06 22:18 | 43.93668 | 12.19831 | 10251 ft | 276 kts | 325° |
| 2026-05-06 22:18 | 43.95490 | 12.19112 | 9989 ft | 278 kts | 358° |
| 2026-05-06 22:18 | 43.97366 | 12.19785 | 9391 ft | 287 kts | 25° |
| 2026-05-06 22:19 | 43.99170 | 12.21057 | 8772 ft | 295 kts | 30° |
| 2026-05-06 22:19 | 44.00613 | 12.23064 | 8161 ft | 298 kts | 63° |
| 2026-05-06 22:19 | 44.01098 | 12.25784 | 7528 ft | 297 kts | 94° |
| 2026-05-06 22:19 | 44.00523 | 12.28450 | 6944 ft | 290 kts | 122° |
| 2026-05-06 22:20 | 43.99823 | 12.31061 | 6557 ft | 290 kts | 97° |
| 2026-05-06 22:20 | 44.00182 | 12.33759 | 6241 ft | 287 kts | 64° |
| 2026-05-06 22:20 | 44.01495 | 12.35783 | 5817 ft | 281 kts | 28° |
| 2026-05-06 22:20 | 44.03160 | 12.36927 | 5500 ft | 260 kts | 23° |
| 2026-05-06 22:21 | 44.04739 | 12.37992 | 5165 ft | 244 kts | 24° |
| 2026-05-06 22:21 | 44.06295 | 12.38574 | 4875 ft | 220 kts | 348° |
| 2026-05-06 22:21 | 44.07539 | 12.37761 | 4730 ft | 190 kts | 310° |
| 2026-05-06 22:21 | 44.08353 | 12.36339 | 4386 ft | 186 kts | 298° |
| 2026-05-06 22:22 | 44.09076 | 12.34870 | 4123 ft | 183 kts | 298° |
| 2026-05-06 22:22 | 44.09779 | 12.33421 | 3854 ft | 178 kts | 293° |
| 2026-05-06 22:22 | 44.10328 | 12.31927 | 3628 ft | 171 kts | 291° |
| 2026-05-06 22:22 | 44.10853 | 12.30514 | 3468 ft | 158 kts | 291° |
| 2026-05-06 22:23 | 44.11342 | 12.29183 | 3216 ft | 153 kts | 291° |
| 2026-05-06 22:23 | 44.11821 | 12.27885 | 2966 ft | 148 kts | 291° |
| 2026-05-06 22:23 | 44.12273 | 12.26669 | 2759 ft | 137 kts | 291° |
| 2026-05-06 22:23 | 44.12696 | 12.25521 | 2507 ft | 131 kts | 291° |
| 2026-05-06 22:24 | 44.13105 | 12.24409 | 2294 ft | 130 kts | 291° |
| 2026-05-06 22:24 | 44.13517 | 12.23287 | 2094 ft | 131 kts | 292° |
| 2026-05-06 22:24 | 44.13932 | 12.22162 | 1903 ft | 131 kts | 291° |
| 2026-05-06 22:24 | 44.14349 | 12.21030 | 1716 ft | 131 kts | 292° |
| 2026-05-06 22:25 | 44.14759 | 12.19917 | 1516 ft | 129 kts | 292° |
| 2026-05-06 22:25 | 44.15172 | 12.18796 | 1316 ft | 130 kts | 294° |
| 2026-05-06 22:25 | 44.15588 | 12.17669 | 1214 ft | 127 kts | 294° |
| 2026-05-06 22:25 | 44.15972 | 12.16580 | 1349 ft | 120 kts | 291° |
| 2026-05-06 22:26 | 44.16347 | 12.15517 | 1242 ft | 125 kts | 295° |
| 2026-05-06 22:26 | 44.16790 | 12.14461 | 1087 ft | 127 kts | 296° |
| 2026-05-06 22:26 | 44.17202 | 12.13345 | 1022 ft | 129 kts | 291° |
| 2026-05-06 22:26 | 44.17593 | 12.12216 | 853 ft | 131 kts | 294° |
| 2026-05-06 22:27 | 44.18022 | 12.11070 | 624 ft | 136 kts | 295° |
| 2026-05-06 22:27 | 44.18438 | 12.09926 | 395 ft | 132 kts | 295° |
| 2026-05-06 22:27 | 44.18855 | 12.08804 | 204 ft | 130 kts | 295° |
| 2026-05-06 22:27 | 44.19259 | 12.07692 | 98 ft | 119 kts | 295° |
| 2026-05-06 22:28 | 44.19539 | 12.06929 | 102 ft | 49 kts | 296° |
| 2026-05-06 22:28 | 44.19648 | 12.06626 | 104 ft | 34 kts | 296° |
| 2026-05-06 22:28 | 44.19738 | 12.06378 | 105 ft | 17 kts | 296° |
| 2026-05-06 22:28 | 44.19765 | 12.06298 | 106 ft | 8 kts | 295° |
| 2026-05-06 22:29 | 44.19792 | 12.06268 | 106 ft | 3 kts | 7° |
| 2026-05-06 22:29 | 44.19814 | 12.06293 | 106 ft | 4 kts | 75° |
| 2026-05-06 22:29 | 44.19823 | 12.06331 | 106 ft | 4 kts | 69° |
| 2026-05-06 22:29 | 44.19831 | 12.06363 | 105 ft | 2 kts | 77° |
| 2026-05-06 22:30 | 44.19833 | 12.06394 | 105 ft | 3 kts | 92° |
| 2026-05-06 22:30 | 44.19831 | 12.06438 | 105 ft | 5 kts | 94° |
| 2026-05-06 22:30 | 44.19828 | 12.06496 | 104 ft | 6 kts | 94° |
| 2026-05-06 22:30 | 44.19824 | 12.06565 | 104 ft | 8 kts | 95° |
| 2026-05-06 22:31 | 44.19819 | 12.06652 | 103 ft | 9 kts | 95° |
| 2026-05-06 22:31 | 44.19814 | 12.06742 | 103 ft | 5 kts | 93° |
| 2026-05-06 22:31 | 44.19811 | 12.06794 | 102 ft | 6 kts | 97° |
| 2026-05-06 22:31 | 44.19796 | 12.06859 | 102 ft | 7 kts | 123° |
| 2026-05-06 22:32 | 44.19756 | 12.06859 | 102 ft | 3 kts | 193° |
| 2026-05-06 22:32 | 44.19736 | 12.06878 | 102 ft | 4 kts | 118° |
| 2026-05-06 22:32 | 44.19720 | 12.06922 | 102 ft | 5 kts | 116° |
| 2026-05-06 22:32 | 44.19699 | 12.06981 | 101 ft | 7 kts | 117° |
| 2026-05-06 22:33 | 44.19673 | 12.07050 | 100 ft | 7 kts | 117° |
| 2026-05-06 22:33 | 44.19658 | 12.07093 | 100 ft | 3 kts | 117° |
| 2026-05-06 22:33 | 44.19648 | 12.07118 | 100 ft | 2 kts | 124° |
| 2026-05-06 22:33 | 44.19630 | 12.07122 | 100 ft | 3 kts | 204° |
| 2026-05-06 22:34 | 44.19611 | 12.07108 | 100 ft | 2 kts | 206° |
| 2026-05-06 22:34 | 44.19608 | 12.07107 | 100 ft | 0 kts | 206° |
| 2026-05-06 22:34 | 44.19608 | 12.07106 | 100 ft | 0 kts | 206° |
| 2026-05-06 22:35 | 44.19596 | 12.07098 | 100 ft | 2 kts | 206° |
| 2026-05-06 22:35 | 44.19573 | 12.07082 | 101 ft | 4 kts | 206° |
| 2026-05-06 22:35 | 44.19541 | 12.07060 | 101 ft | 5 kts | 206° |
| 2026-05-06 22:35 | 44.19502 | 12.07059 | 101 ft | 6 kts | 149° |
| 2026-05-06 22:36 | 44.19471 | 12.07116 | 101 ft | 8 kts | 116° |
| 2026-05-06 22:36 | 44.19442 | 12.07198 | 100 ft | 10 kts | 117° |
| 2026-05-06 22:36 | 44.19404 | 12.07299 | 99 ft | 12 kts | 117° |
| 2026-05-06 22:36 | 44.19361 | 12.07418 | 98 ft | 14 kts | 116° |
| 2026-05-06 22:37 | 44.19331 | 12.07537 | 98 ft | 11 kts | 85° |
| 2026-05-06 22:37 | 44.19312 | 12.07553 | 98 ft | 7 kts | 293° |
| 2026-05-06 22:37 | 44.19412 | 12.07275 | 99 ft | 70 kts | 296° |
| 2026-05-06 22:37 | 44.19747 | 12.06358 | 107 ft | 138 kts | 295° |
| 2026-05-06 22:38 | 44.20230 | 12.05056 | 505 ft | 155 kts | 296° |
| 2026-05-06 22:38 | 44.20622 | 12.03653 | 978 ft | 161 kts | 266° |
| 2026-05-06 22:38 | 44.20180 | 12.02243 | 1397 ft | 171 kts | 223° |
| 2026-05-06 22:38 | 44.19047 | 12.01519 | 1615 ft | 189 kts | 185° |
| 2026-05-06 22:39 | 44.17825 | 12.02110 | 1433 ft | 192 kts | 140° |
| 2026-05-06 22:39 | 44.17043 | 12.03599 | 1375 ft | 186 kts | 120° |
| 2026-05-06 22:39 | 44.16506 | 12.05190 | 1243 ft | 179 kts | 117° |
| 2026-05-06 22:39 | 44.16052 | 12.06691 | 1295 ft | 156 kts | 114° |
| 2026-05-06 22:40 | 44.15674 | 12.08010 | 1222 ft | 144 kts | 114° |
| 2026-05-06 22:40 | 44.15320 | 12.09284 | 1079 ft | 137 kts | 114° |
| 2026-05-06 22:40 | 44.15120 | 12.10542 | 957 ft | 135 kts | 88° |
| 2026-05-06 22:40 | 44.15467 | 12.11775 | 945 ft | 149 kts | 51° |
| 2026-05-06 22:41 | 44.17101 | 12.13345 | 705 ft | 135 kts | 355° |
| 2026-05-06 22:41 | 44.17814 | 12.12651 | 663 ft | 137 kts | 284° |
| 2026-05-06 22:41 | 44.18004 | 12.11317 | 597 ft | 139 kts | 281° |
| 2026-05-06 22:42 | 44.18361 | 12.10094 | 407 ft | 134 kts | 296° |
| 2026-05-06 22:42 | 44.18800 | 12.08954 | 228 ft | 134 kts | 294° |
| 2026-05-06 22:42 | 44.19222 | 12.07794 | 98 ft | 129 kts | 295° |
| 2026-05-06 22:42 | 44.19632 | 12.06681 | 144 ft | 144 kts | 295° |
| 2026-05-06 22:43 | 44.20122 | 12.05343 | 465 ft | 167 kts | 296° |
| 2026-05-06 22:43 | 44.20673 | 12.03910 | 844 ft | 166 kts | 295° |
| 2026-05-06 22:43 | 44.21084 | 12.02548 | 1523 ft | 150 kts | 274° |
| 2026-05-06 22:43 | 44.20852 | 12.01201 | 1804 ft | 155 kts | 233° |
| 2026-05-06 22:44 | 44.19951 | 12.00347 | 1808 ft | 160 kts | 191° |
| 2026-05-06 22:44 | 44.18822 | 12.00656 | 1565 ft | 177 kts | 148° |
| 2026-05-06 22:44 | 44.18132 | 12.02021 | 1509 ft | 169 kts | 112° |
| 2026-05-06 22:44 | 44.17766 | 12.03507 | 1483 ft | 160 kts | 111° |
| 2026-05-06 22:45 | 44.17339 | 12.04968 | 1365 ft | 165 kts | 117° |
| 2026-05-06 22:45 | 44.16857 | 12.06405 | 1387 ft | 163 kts | 119° |
| 2026-05-06 22:45 | 44.16365 | 12.07732 | 1422 ft | 143 kts | 121° |
| 2026-05-06 22:45 | 44.15962 | 12.08984 | 1275 ft | 144 kts | 105° |
| 2026-05-06 22:46 | 44.16089 | 12.10384 | 1068 ft | 149 kts | 65° |
| 2026-05-06 22:46 | 44.16758 | 12.11443 | 955 ft | 146 kts | 31° |
| 2026-05-06 22:46 | 44.17729 | 12.11699 | 717 ft | 141 kts | 340° |
| 2026-05-06 22:46 | 44.18353 | 12.10789 | 503 ft | 136 kts | 283° |
| 2026-05-06 22:47 | 44.18590 | 12.09515 | 312 ft | 138 kts | 294° |
| 2026-05-06 22:47 | 44.19032 | 12.08329 | 134 ft | 136 kts | 293° |
| 2026-05-06 22:47 | 44.19429 | 12.07239 | 100 ft | 118 kts | 294° |
| 2026-05-06 22:47 | 44.19871 | 12.06038 | 323 ft | 152 kts | 296° |
| 2026-05-06 22:48 | 44.20412 | 12.04697 | 839 ft | 166 kts | 297° |
| 2026-05-06 22:48 | 44.20807 | 12.03172 | 1439 ft | 170 kts | 268° |
| 2026-05-06 22:48 | 44.20351 | 12.01703 | 1714 ft | 170 kts | 221° |
| 2026-05-06 22:48 | 44.19249 | 12.01110 | 1622 ft | 172 kts | 181° |
| 2026-05-06 22:49 | 44.18145 | 12.01688 | 1518 ft | 179 kts | 137° |
| 2026-05-06 22:49 | 44.17479 | 12.03193 | 1458 ft | 180 kts | 117° |
| 2026-05-06 22:49 | 44.17024 | 12.04776 | 1434 ft | 179 kts | 112° |
| 2026-05-06 22:49 | 44.16590 | 12.06395 | 1428 ft | 173 kts | 115° |
| 2026-05-06 22:50 | 44.16149 | 12.07834 | 1490 ft | 147 kts | 116° |
| 2026-05-06 22:50 | 44.15808 | 12.09118 | 1265 ft | 139 kts | 105° |
| 2026-05-06 22:50 | 44.15854 | 12.10468 | 1096 ft | 143 kts | 69° |
| 2026-05-06 22:50 | 44.16515 | 12.11465 | 948 ft | 144 kts | 22° |
| 2026-05-06 22:51 | 44.17502 | 12.11507 | 750 ft | 145 kts | 335° |
| 2026-05-06 22:51 | 44.18213 | 12.10580 | 501 ft | 145 kts | 294° |
| 2026-05-06 22:51 | 44.18649 | 12.09346 | 301 ft | 138 kts | 295° |
| 2026-05-06 22:51 | 44.19083 | 12.08177 | 115 ft | 135 kts | 294° |
| 2026-05-06 22:52 | 44.19508 | 12.07021 | 129 ft | 150 kts | 297° |
| 2026-05-06 22:52 | 44.20341 | 12.06106 | 640 ft | 170 kts | 331° |
| 2026-05-06 22:52 | 44.21357 | 12.05318 | 943 ft | 153 kts | 323° |
| 2026-05-06 22:52 | 44.21930 | 12.04232 | 901 ft | 128 kts | 273° |
| 2026-05-06 22:53 | 44.21565 | 12.03251 | 746 ft | 128 kts | 203° |
| 2026-05-06 22:53 | 44.20754 | 12.03543 | 812 ft | 140 kts | 128° |
| 2026-05-06 22:53 | 44.20307 | 12.04837 | 310 ft | 152 kts | 117° |
| 2026-05-06 22:53 | 44.19852 | 12.06082 | 116 ft | 137 kts | 114° |
| 2026-05-06 22:54 | 44.19446 | 12.07284 | 320 ft | 148 kts | 122° |
| 2026-05-06 22:54 | 44.18876 | 12.08485 | 996 ft | 163 kts | 128° |
| 2026-05-06 22:54 | 44.18198 | 12.09924 | 1412 ft | 177 kts | 119° |
| 2026-05-06 22:54 | 44.18127 | 12.11505 | 1341 ft | 166 kts | 73° |
| 2026-05-06 22:55 | 44.18602 | 12.12918 | 1190 ft | 157 kts | 61° |
| 2026-05-06 22:55 | 44.18989 | 12.14154 | 1251 ft | 126 kts | 85° |
| 2026-05-06 22:55 | 44.18646 | 12.15271 | 718 ft | 139 kts | 153° |
| 2026-05-06 22:55 | 44.17799 | 12.15361 | 569 ft | 114 kts | 210° |
| 2026-05-06 22:56 | 44.17313 | 12.14489 | 564 ft | 129 kts | 250° |
| 2026-05-06 22:56 | 44.17233 | 12.13277 | 666 ft | 130 kts | 276° |
| 2026-05-06 22:56 | 44.17582 | 12.12094 | 667 ft | 135 kts | 301° |
| 2026-05-06 22:56 | 44.18084 | 12.10960 | 559 ft | 139 kts | 295° |
| 2026-05-06 22:57 | 44.18477 | 12.09797 | 366 ft | 130 kts | 294° |
| 2026-05-06 22:57 | 44.18906 | 12.08662 | 200 ft | 132 kts | 294° |
| 2026-05-06 22:57 | 44.19305 | 12.07563 | 99 ft | 118 kts | 296° |
| 2026-05-06 22:57 | 44.19536 | 12.06928 | 102 ft | 25 kts | 296° |
| 2026-05-06 22:58 | 44.19628 | 12.06820 | 103 ft | 12 kts | 9° |
| 2026-05-06 22:58 | 44.19711 | 12.06869 | 102 ft | 12 kts | 27° |
| 2026-05-06 22:58 | 44.19730 | 12.06891 | 102 ft | 1 kts | 97° |
| 2026-05-06 22:58 | 44.19716 | 12.06934 | 101 ft | 7 kts | 115° |
| 2026-05-06 22:59 | 44.19700 | 12.06983 | 101 ft | 3 kts | 91° |
| 2026-05-06 22:59 | 44.19727 | 12.06999 | 101 ft | 5 kts | 5° |
| 2026-05-06 22:59 | 44.19743 | 12.07003 | 101 ft | 0 kts | 13° |
| 2026-05-06 22:59 | 44.19753 | 12.07006 | 101 ft | 2 kts | 18° |
| 2026-05-06 23:00 | 44.19761 | 12.07015 | 101 ft | 0 kts | 49° |